Preview of NWS' New Version of Forecast
This preview is not operational and should not be used for support decisions.

Terminal Aerodrome Forecast (TAF)

Issued by National Weather Service (NWS)

                            
000
FTUS41 KGYX 200334 AAC
TAFRKD
TAF AMD
KRKD 200334Z 2004/2024 00000KT 4SM BR SCT001
     FM200600 VRB03KT 3SM BR BKN001
     FM200900 VRB03KT 5SM BR SCT001
     FM201600 19006KT P6SM SKC=